createdAt,value
2022-10-19T00:00:01.571Z,3.70
2022-10-19T00:02:28.480Z,4.03
2022-10-19T00:04:55.370Z,4.00
2022-10-19T00:07:22.125Z,4.20
2022-10-19T00:09:49.487Z,4.33
2022-10-19T00:12:16.447Z,3.47
2022-10-19T00:14:43.406Z,3.42
2022-10-19T00:17:10.186Z,3.40
2022-10-19T00:19:36.992Z,3.78
2022-10-19T00:22:03.852Z,3.53
2022-10-19T00:24:30.723Z,3.88
2022-10-19T00:26:57.596Z,3.60
2022-10-19T00:29:24.397Z,3.30
2022-10-19T00:31:51.729Z,3.33
2022-10-19T00:34:18.745Z,3.00
2022-10-19T00:36:46.264Z,3.08
2022-10-19T00:39:15.168Z,3.45
2022-10-19T00:41:43.023Z,2.85
2022-10-19T00:44:12.840Z,3.53
2022-10-19T00:46:42.217Z,3.10
2022-10-19T00:49:22.455Z,3.22
2022-10-19T00:51:55.389Z,3.47
2022-10-19T00:54:22.872Z,3.30
2022-10-19T00:56:53.508Z,3.40
2022-10-19T00:59:22.161Z,3.23
2022-10-19T01:01:49.875Z,3.08
2022-10-19T01:04:17.211Z,3.40
2022-10-19T01:06:44.091Z,3.17
2022-10-19T01:09:10.942Z,3.38
2022-10-19T01:11:52.922Z,2.93
2022-10-19T01:14:25.611Z,3.05
2022-10-19T01:17:17.224Z,2.92
2022-10-19T01:19:49.782Z,3.78
2022-10-19T01:22:47.606Z,3.35
2022-10-19T01:25:30.795Z,3.10
2022-10-19T01:28:16.620Z,3.28
2022-10-19T01:31:04.831Z,3.35
2022-10-19T01:33:47.532Z,3.28
2022-10-19T01:36:33.127Z,3.22
2022-10-19T01:39:17.226Z,3.27
2022-10-19T01:41:47.856Z,3.22
2022-10-19T01:44:28.412Z,3.15
2022-10-19T01:47:00.461Z,3.50
2022-10-19T01:49:35.252Z,3.00
2022-10-19T01:52:08.830Z,2.80
2022-10-19T01:54:43.168Z,2.80
2022-10-19T01:57:13.493Z,2.88
2022-10-19T01:59:41.228Z,3.30
2022-10-19T02:02:13.373Z,3.10
2022-10-19T02:04:41.427Z,3.00
2022-10-19T02:07:09.043Z,2.65
2022-10-19T02:09:36.137Z,3.28
2022-10-19T02:12:06.211Z,2.38
2022-10-19T02:14:39.161Z,2.20
2022-10-19T02:17:09.505Z,2.17
2022-10-19T02:19:36.404Z,2.80
2022-10-19T02:22:03.852Z,2.53
2022-10-19T02:24:30.648Z,2.75
2022-10-19T02:26:58.090Z,2.40
2022-10-19T02:29:24.978Z,2.30
2022-10-19T02:31:51.794Z,3.00
2022-10-19T02:34:18.702Z,2.42
2022-10-19T02:36:45.709Z,2.20
2022-10-19T02:39:12.599Z,2.13
2022-10-19T02:41:48.952Z,2.57
2022-10-19T02:44:23.077Z,2.97
2022-10-19T02:47:01.013Z,2.30
2022-10-19T02:49:29.854Z,2.40
2022-10-19T02:52:02.717Z,2.75
2022-10-19T02:54:30.015Z,1.87
2022-10-19T02:56:57.204Z,2.47
2022-10-19T02:59:24.903Z,2.40
2022-10-19T03:01:51.727Z,2.67
2022-10-19T03:04:18.579Z,2.70
2022-10-19T03:06:45.412Z,3.00
2022-10-19T03:09:12.337Z,3.00
2022-10-19T03:11:39.176Z,2.13
2022-10-19T03:14:06.055Z,2.40
2022-10-19T03:16:32.902Z,2.47
2022-10-19T03:18:59.738Z,3.13
2022-10-19T03:21:26.629Z,2.80
2022-10-19T03:23:53.496Z,2.70
2022-10-19T03:26:20.428Z,2.40
2022-10-19T03:28:47.296Z,2.67
2022-10-19T03:31:14.326Z,2.67
2022-10-19T03:33:41.189Z,2.80
2022-10-19T03:36:38.016Z,3.47
2022-10-19T03:39:08.469Z,2.30
2022-10-19T03:41:36.792Z,2.95
2022-10-19T03:44:04.578Z,2.80
2022-10-19T03:46:31.610Z,2.85
2022-10-19T03:48:59.694Z,2.80
2022-10-19T03:51:28.434Z,2.85
2022-10-19T03:53:59.603Z,2.38
2022-10-19T03:56:28.590Z,2.40
2022-10-19T03:58:56.750Z,2.60
2022-10-19T04:01:29.248Z,2.67
2022-10-19T04:03:58.188Z,2.50
2022-10-19T04:06:27.920Z,2.60
2022-10-19T04:08:55.160Z,2.40
2022-10-19T04:11:25.078Z,2.13
2022-10-19T04:13:53.513Z,2.38
2022-10-19T04:16:21.998Z,2.53
2022-10-19T04:18:48.865Z,2.10
2022-10-19T04:21:32.541Z,2.00
2022-10-19T04:24:02.154Z,2.17
2022-10-19T04:26:29.634Z,2.58
2022-10-19T04:29:00.897Z,2.22
2022-10-19T04:31:29.101Z,2.30
2022-10-19T04:33:56.845Z,1.90
2022-10-19T04:36:24.376Z,2.08
2022-10-19T04:38:51.216Z,2.50
2022-10-19T04:41:20.470Z,2.30
2022-10-19T04:43:48.331Z,1.92
2022-10-19T04:46:19.577Z,1.83
2022-10-19T04:48:49.404Z,2.45
2022-10-19T04:51:17.126Z,2.28
2022-10-19T04:53:44.547Z,2.80
2022-10-19T04:56:17.535Z,2.25
2022-10-19T04:58:45.239Z,1.97
2022-10-19T05:01:15.528Z,2.10
2022-10-19T05:03:42.454Z,2.33
2022-10-19T05:06:10.298Z,2.70
2022-10-19T05:08:38.386Z,3.15
2022-10-19T05:11:08.861Z,3.17
2022-10-19T05:13:37.063Z,3.35
2022-10-19T05:16:06.067Z,3.20
2022-10-19T05:18:33.947Z,2.85
2022-10-19T05:21:12.349Z,2.50
2022-10-19T05:23:40.485Z,2.23
2022-10-19T05:26:13.288Z,2.65
2022-10-19T05:28:40.313Z,2.53
2022-10-19T05:31:15.980Z,2.58
2022-10-19T05:33:44.153Z,2.58
2022-10-19T05:36:19.890Z,2.03
2022-10-19T05:38:48.930Z,2.00
2022-10-19T05:41:16.672Z,2.20
2022-10-19T05:43:44.543Z,2.53
2022-10-19T05:46:15.279Z,2.40
2022-10-19T05:48:42.247Z,2.13
2022-10-19T05:51:12.902Z,1.83
2022-10-19T05:53:40.119Z,2.08
2022-10-19T05:56:09.770Z,2.30
2022-10-19T05:58:36.757Z,2.40
2022-10-19T06:01:03.901Z,1.87
2022-10-19T06:03:31.319Z,2.30
2022-10-19T06:05:58.567Z,2.05
2022-10-19T06:08:25.901Z,2.30
2022-10-19T06:10:52.947Z,2.58
2022-10-19T06:13:20.579Z,1.80
2022-10-19T06:15:51.619Z,1.42
2022-10-19T06:18:18.606Z,2.10
2022-10-19T06:20:45.793Z,2.22
2022-10-19T06:23:12.699Z,2.05
2022-10-19T06:25:41.102Z,2.07
2022-10-19T06:28:08.623Z,2.25
2022-10-19T06:30:39.644Z,2.95
2022-10-19T06:33:07.219Z,2.45
2022-10-19T06:35:34.503Z,2.60
2022-10-19T06:38:01.490Z,2.87
2022-10-19T06:40:28.419Z,4.15
2022-10-19T06:42:56.454Z,6.68
2022-10-19T06:45:23.317Z,6.15
2022-10-19T06:47:50.163Z,4.60
2022-10-19T06:50:17.292Z,7.43
2022-10-19T06:52:44.288Z,10.05
2022-10-19T06:55:11.236Z,10.50
2022-10-19T06:57:38.145Z,9.18
2022-10-19T07:00:08.220Z,6.60
2022-10-19T07:02:35.058Z,5.80
2022-10-19T07:05:06.992Z,4.35
2022-10-19T07:07:34.978Z,3.00
2022-10-19T07:10:03.670Z,2.53
2022-10-19T07:12:30.494Z,2.28
2022-10-19T07:14:58.297Z,2.47
2022-10-19T07:17:25.391Z,2.17
2022-10-19T07:19:52.228Z,2.30
2022-10-19T07:22:24.346Z,2.03
2022-10-19T07:24:55.762Z,1.65
2022-10-19T07:27:22.946Z,1.90
2022-10-19T07:29:49.992Z,1.88
2022-10-19T07:32:16.929Z,2.22
2022-10-19T07:34:43.761Z,1.92
2022-10-19T07:37:10.802Z,1.77
2022-10-19T07:39:37.831Z,1.57
2022-10-19T07:42:05.206Z,1.55
2022-10-19T07:44:32.145Z,1.58
2022-10-19T07:46:59.505Z,2.13
2022-10-19T07:49:26.607Z,2.75
2022-10-19T07:51:55.308Z,2.00
2022-10-19T07:54:23.844Z,1.50
2022-10-19T07:56:50.751Z,1.80
2022-10-19T07:59:17.890Z,1.90
2022-10-19T08:01:45.372Z,1.77
2022-10-19T08:06:59.469Z,1.65
2022-10-19T08:12:15.360Z,1.98
2022-10-19T08:14:42.600Z,1.70
2022-10-19T08:17:12.032Z,1.97
2022-10-19T08:19:43.697Z,1.90
2022-10-19T08:22:11.271Z,1.45
2022-10-19T08:24:38.329Z,1.58
2022-10-19T08:27:05.619Z,1.95
2022-10-19T08:29:32.724Z,2.37
2022-10-19T08:31:59.977Z,1.92
2022-10-19T08:34:26.887Z,1.80
2022-10-19T08:36:53.926Z,1.75
2022-10-19T08:39:20.914Z,1.80
2022-10-19T08:42:04.278Z,1.70
2022-10-19T08:45:04.833Z,1.90
2022-10-19T08:48:02.674Z,1.70
2022-10-19T08:50:42.704Z,1.13
2022-10-19T08:53:22.722Z,1.25
2022-10-19T08:56:26.961Z,1.50
2022-10-19T08:59:37.552Z,2.15
2022-10-19T09:02:49.551Z,1.80
2022-10-19T09:05:43.116Z,1.65
2022-10-19T09:08:17.464Z,1.83
2022-10-19T09:10:49.053Z,2.57
2022-10-19T09:14:00.449Z,2.10
2022-10-19T09:16:30.744Z,2.00
2022-10-19T09:18:58.208Z,1.67
2022-10-19T09:21:46.045Z,2.08
2022-10-19T09:24:30.167Z,2.27
2022-10-19T09:27:00.894Z,2.25
2022-10-19T09:29:43.567Z,1.60
2022-10-19T09:32:23.734Z,1.55
2022-10-19T09:34:54.141Z,1.60
2022-10-19T09:37:26.336Z,1.87
2022-10-19T09:39:55.814Z,1.77
2022-10-19T09:42:34.140Z,1.70
2022-10-19T09:45:11.697Z,1.48
2022-10-19T09:47:41.001Z,1.40
2022-10-19T09:50:19.371Z,1.30
2022-10-19T09:52:50.766Z,1.60
2022-10-19T09:55:17.603Z,1.30
2022-10-19T09:57:58.626Z,1.60
2022-10-19T10:00:35.711Z,1.60
2022-10-19T10:03:02.909Z,1.37
2022-10-19T10:05:32.939Z,0.93
2022-10-19T10:08:00.001Z,0.90
2022-10-19T10:10:44.141Z,0.90
2022-10-19T10:13:24.063Z,0.80
2022-10-19T10:15:57.171Z,0.70
2022-10-19T10:18:25.538Z,0.43
2022-10-19T10:21:07.204Z,0.70
2022-10-19T10:23:36.657Z,0.55
2022-10-19T10:26:05.168Z,0.50
2022-10-19T10:28:32.436Z,0.63
2022-10-19T10:31:07.784Z,0.88
2022-10-19T10:33:44.758Z,0.77
2022-10-19T10:36:12.937Z,0.75
2022-10-19T10:38:46.293Z,1.02
2022-10-19T10:41:17.941Z,0.73
2022-10-19T10:44:23.641Z,0.50
2022-10-19T10:46:58.683Z,0.75
2022-10-19T10:49:28.779Z,0.60
2022-10-19T10:52:04.108Z,0.82
2022-10-19T10:54:33.087Z,0.40
2022-10-19T10:57:06.633Z,1.08
2022-10-19T10:59:44.753Z,0.50
2022-10-19T11:02:39.894Z,0.70
2022-10-19T11:05:29.905Z,0.68
2022-10-19T11:08:35.180Z,0.30
2022-10-19T11:11:20.306Z,0.50
2022-10-19T11:14:01.686Z,0.70
2022-10-19T11:16:41.427Z,0.70
2022-10-19T11:21:51.148Z,0.40
2022-10-19T11:27:19.633Z,0.50
2022-10-19T11:30:15.577Z,0.40
2022-10-19T11:32:54.403Z,0.32
2022-10-19T11:35:29.714Z,0.40
2022-10-19T11:38:20.423Z,0.40
2022-10-19T11:41:18.221Z,0.30
2022-10-19T11:44:11.940Z,0.63
2022-10-19T11:47:00.278Z,0.40
2022-10-19T11:49:50.817Z,0.40
2022-10-19T11:52:24.130Z,0.43
2022-10-19T11:55:12.631Z,0.50
2022-10-19T11:57:55.939Z,0.45
2022-10-19T12:00:39.809Z,0.50
2022-10-19T12:03:44.414Z,0.60
2022-10-19T12:06:32.209Z,0.40
2022-10-19T12:09:24.049Z,0.50
2022-10-19T12:12:03.314Z,0.32
2022-10-19T12:14:39.401Z,0.40
2022-10-19T12:20:05.579Z,0.50
2022-10-19T12:22:37.567Z,0.60
2022-10-19T12:25:05.217Z,0.38
2022-10-19T12:27:41.140Z,0.50
2022-10-19T12:30:14.829Z,0.47
2022-10-19T12:32:58.521Z,0.70
2022-10-19T12:35:48.036Z,0.47
2022-10-19T12:38:37.123Z,0.40
2022-10-19T12:41:20.202Z,0.50
2022-10-19T12:44:04.866Z,0.63
2022-10-19T12:46:41.702Z,0.60
2022-10-19T12:49:49.236Z,0.50
2022-10-19T12:52:42.671Z,1.25
2022-10-19T12:55:25.944Z,0.50
2022-10-19T12:58:23.130Z,0.50
2022-10-19T13:01:02.035Z,0.70
2022-10-19T13:03:38.824Z,1.08
2022-10-19T13:06:13.051Z,0.68
2022-10-19T13:09:09.793Z,0.70
2022-10-19T13:11:38.524Z,1.00
2022-10-19T13:14:11.558Z,0.77
2022-10-19T13:16:59.939Z,0.90
2022-10-19T13:19:27.692Z,0.70
2022-10-19T13:22:29.392Z,0.77
2022-10-19T13:25:29.129Z,0.77
2022-10-19T13:28:01.185Z,0.60
2022-10-19T13:30:37.143Z,1.00
2022-10-19T13:33:22.873Z,1.08
2022-10-19T13:35:49.902Z,0.98
2022-10-19T13:38:16.817Z,0.80
2022-10-19T13:40:49.764Z,0.60
2022-10-19T13:43:26.890Z,0.70
2022-10-19T13:46:00.616Z,0.60
2022-10-19T13:48:55.238Z,0.60
2022-10-19T13:51:45.252Z,0.40
2022-10-19T13:54:46.085Z,0.50
2022-10-19T13:57:48.900Z,0.50
2022-10-19T14:00:21.060Z,0.50
2022-10-19T14:03:10.884Z,0.40
2022-10-19T14:05:41.649Z,0.40
2022-10-19T14:08:20.805Z,0.50
2022-10-19T14:11:34.163Z,0.68
2022-10-19T14:14:28.482Z,0.63
2022-10-19T14:17:01.360Z,0.57
2022-10-19T14:19:33.915Z,1.07
2022-10-19T14:22:17.607Z,0.60
2022-10-19T14:24:44.446Z,0.47
2022-10-19T14:27:18.773Z,0.32
2022-10-19T14:29:48.340Z,0.63
2022-10-19T14:32:17.370Z,0.40
2022-10-19T14:34:47.164Z,0.45
2022-10-19T14:37:23.848Z,0.40
2022-10-19T14:40:26.405Z,0.38
2022-10-19T14:42:56.998Z,0.40
2022-10-19T14:45:29.882Z,0.40
2022-10-19T14:48:03.073Z,0.45
2022-10-19T14:50:47.875Z,0.55
2022-10-19T14:53:17.532Z,0.60
2022-10-19T14:55:44.841Z,0.38
2022-10-19T14:58:18.309Z,0.40
2022-10-19T15:00:50.022Z,0.50
2022-10-19T15:03:43.513Z,0.60
2022-10-19T15:06:31.956Z,0.73
2022-10-19T15:09:07.359Z,0.60
2022-10-19T15:11:44.635Z,0.50
2022-10-19T15:14:16.753Z,0.70
2022-10-19T15:16:49.684Z,0.93
2022-10-19T15:19:32.551Z,0.60
2022-10-19T15:22:14.759Z,0.40
2022-10-19T15:24:56.865Z,0.60
2022-10-19T15:27:31.486Z,0.82
2022-10-19T15:30:02.151Z,0.40
2022-10-19T15:32:35.489Z,0.80
2022-10-19T15:35:33.703Z,1.30
2022-10-19T15:38:23.398Z,0.70
2022-10-19T15:40:57.865Z,0.80
2022-10-19T15:43:30.680Z,0.90
2022-10-19T15:46:08.822Z,0.70
2022-10-19T15:48:41.820Z,1.70
2022-10-19T15:51:23.881Z,1.67
2022-10-19T15:53:56.511Z,1.55
2022-10-19T15:56:26.060Z,1.48
2022-10-19T15:58:55.154Z,1.38
2022-10-19T16:01:25.051Z,2.40
2022-10-19T16:03:53.255Z,1.07
2022-10-19T16:06:22.678Z,1.00
2022-10-19T16:08:51.363Z,1.02
2022-10-19T16:11:21.261Z,1.00
2022-10-19T16:13:48.314Z,1.08
2022-10-19T16:16:26.399Z,1.10
2022-10-19T16:18:53.923Z,1.42
2022-10-19T16:21:24.029Z,1.30
2022-10-19T16:23:51.496Z,1.67
2022-10-19T16:26:18.973Z,1.30
2022-10-19T16:28:45.944Z,1.27
2022-10-19T16:31:12.838Z,1.30
2022-10-19T16:33:39.857Z,1.75
2022-10-19T16:36:07.774Z,4.13
2022-10-19T16:38:35.885Z,3.22
2022-10-19T16:41:10.682Z,3.60
2022-10-19T16:43:37.872Z,3.60
2022-10-19T16:46:05.859Z,4.22
2022-10-19T16:48:33.542Z,8.75
2022-10-19T16:51:06.829Z,2.97
2022-10-19T16:53:37.135Z,2.30
2022-10-19T16:56:09.977Z,5.22
2022-10-19T16:58:37.755Z,4.05
2022-10-19T17:01:16.603Z,3.92
2022-10-19T17:03:45.473Z,3.05
2022-10-19T17:06:13.375Z,2.40
2022-10-19T17:11:33.850Z,2.85
2022-10-19T17:14:03.880Z,2.80
2022-10-19T17:16:34.242Z,2.72
2022-10-19T17:19:02.837Z,2.60
2022-10-19T17:21:32.723Z,3.08
2022-10-19T17:24:02.207Z,2.47
2022-10-19T17:26:40.335Z,2.63
2022-10-19T17:29:07.933Z,3.42
2022-10-19T17:31:36.303Z,2.90
2022-10-19T17:34:03.758Z,2.95
2022-10-19T17:36:33.341Z,2.80
2022-10-19T17:39:03.674Z,3.15
2022-10-19T17:41:31.261Z,3.33
2022-10-19T17:43:58.727Z,2.87
2022-10-19T17:46:31.955Z,3.05
2022-10-19T17:48:59.367Z,3.03
2022-10-19T17:51:29.375Z,3.00
2022-10-19T17:54:01.823Z,3.28
2022-10-19T17:56:29.381Z,3.80
2022-10-19T17:58:57.686Z,3.30
2022-10-19T18:01:25.699Z,3.05
2022-10-19T18:03:53.267Z,3.40
2022-10-19T18:06:23.286Z,2.72
2022-10-19T18:08:53.083Z,2.90
2022-10-19T18:11:22.774Z,3.22
2022-10-19T18:13:52.668Z,2.85
2022-10-19T18:16:23.353Z,3.28
2022-10-19T18:18:53.415Z,3.17
2022-10-19T18:21:26.859Z,2.57
2022-10-19T18:23:55.482Z,2.67
2022-10-19T18:26:25.585Z,3.15
2022-10-19T18:28:53.941Z,2.92
2022-10-19T18:31:24.204Z,2.80
2022-10-19T18:33:57.932Z,2.60
2022-10-19T18:36:25.123Z,2.88
2022-10-19T18:38:57.102Z,3.00
2022-10-19T18:41:24.476Z,3.33
2022-10-19T18:43:57.005Z,2.90
2022-10-19T18:46:25.886Z,3.07
2022-10-19T18:48:53.768Z,3.40
2022-10-19T18:51:22.381Z,2.88
2022-10-19T18:53:49.526Z,3.00
2022-10-19T18:56:20.276Z,3.13
2022-10-19T18:58:47.676Z,2.50
2022-10-19T19:01:24.372Z,2.90
2022-10-19T19:03:54.105Z,2.85
2022-10-19T19:06:29.743Z,2.70
2022-10-19T19:08:58.090Z,3.00
2022-10-19T19:11:27.666Z,2.60
2022-10-19T19:13:57.841Z,2.42
2022-10-19T19:16:25.419Z,2.85
2022-10-19T19:18:52.413Z,2.78
2022-10-19T19:21:27.401Z,2.90
2022-10-19T19:23:56.104Z,3.20
2022-10-19T19:26:26.677Z,2.50
2022-10-19T19:28:53.977Z,3.10
2022-10-19T19:31:21.016Z,2.80
2022-10-19T19:33:48.391Z,2.50
2022-10-19T19:36:17.567Z,2.83
2022-10-19T19:38:45.144Z,2.50
2022-10-19T19:41:14.846Z,2.72
2022-10-19T19:43:42.896Z,2.60
2022-10-19T19:46:13.634Z,2.83
2022-10-19T19:48:42.751Z,2.87
2022-10-19T19:51:12.028Z,3.00
2022-10-19T19:53:39.320Z,2.85
2022-10-19T19:56:07.471Z,2.75
2022-10-19T19:58:34.622Z,2.33
2022-10-19T20:01:12.520Z,2.70
2022-10-19T20:03:41.750Z,2.50
2022-10-19T20:06:08.661Z,2.75
2022-10-19T20:08:37.010Z,2.30
2022-10-19T20:11:07.373Z,2.55
2022-10-19T20:13:35.220Z,2.43
2022-10-19T20:16:22.649Z,2.47
2022-10-19T20:18:56.326Z,2.50
2022-10-19T20:21:25.708Z,2.72
2022-10-19T20:23:52.668Z,2.70
2022-10-19T20:26:22.430Z,2.30
2022-10-19T20:28:50.302Z,3.17
2022-10-19T20:31:17.693Z,2.97
2022-10-19T20:33:47.479Z,2.70
2022-10-19T20:36:23.155Z,2.60
2022-10-19T20:38:55.404Z,2.57
2022-10-19T20:41:24.337Z,2.30
2022-10-19T20:43:51.867Z,2.67
2022-10-19T20:46:22.472Z,3.10
2022-10-19T20:48:50.062Z,2.55
2022-10-19T20:51:18.767Z,3.00
2022-10-19T20:53:50.739Z,2.83
2022-10-19T20:56:21.829Z,2.88
2022-10-19T20:58:50.653Z,2.33
2022-10-19T21:01:19.369Z,2.70
2022-10-19T21:03:52.911Z,2.50
2022-10-19T21:06:20.997Z,2.47
2022-10-19T21:08:48.034Z,2.85
2022-10-19T21:11:20.748Z,2.80
2022-10-19T21:13:48.606Z,2.58
2022-10-19T21:16:18.108Z,2.60
2022-10-19T21:18:46.719Z,2.60
2022-10-19T21:21:17.977Z,2.50
2022-10-19T21:23:47.002Z,2.25
2022-10-19T21:26:14.420Z,2.50
2022-10-19T21:28:48.865Z,2.30
2022-10-19T21:31:17.101Z,2.35
2022-10-19T21:33:44.866Z,2.45
2022-10-19T21:36:13.504Z,2.70
2022-10-19T21:38:40.974Z,2.38
2022-10-19T21:41:12.012Z,2.47
2022-10-19T21:43:38.847Z,3.17
2022-10-19T21:46:08.220Z,2.50
2022-10-19T21:48:35.204Z,2.25
2022-10-19T21:51:16.692Z,2.60
2022-10-19T21:53:44.470Z,2.57
2022-10-19T21:56:11.427Z,2.40
2022-10-19T21:58:38.370Z,2.60
2022-10-19T22:01:06.589Z,2.20
2022-10-19T22:03:34.383Z,2.30
2022-10-19T22:06:01.469Z,2.43
2022-10-19T22:08:28.532Z,2.40
2022-10-19T22:10:55.706Z,2.20
2022-10-19T22:13:22.475Z,2.55
2022-10-19T22:15:49.404Z,2.20
2022-10-19T22:18:16.245Z,2.37
2022-10-19T22:20:43.047Z,2.63
2022-10-19T22:23:09.945Z,2.60
2022-10-19T22:25:36.778Z,2.30
2022-10-19T22:28:03.884Z,2.38
2022-10-19T22:30:30.669Z,2.30
2022-10-19T22:32:57.698Z,2.63
2022-10-19T22:35:24.456Z,2.50
2022-10-19T22:37:51.289Z,2.60
2022-10-19T22:40:18.248Z,2.58
2022-10-19T22:42:45.210Z,2.70
2022-10-19T22:45:12.066Z,2.88
2022-10-19T22:47:38.869Z,2.97
2022-10-19T22:50:06.891Z,2.42
2022-10-19T22:52:34.044Z,2.78
2022-10-19T22:55:01.298Z,2.63
2022-10-19T22:57:28.196Z,2.85
2022-10-19T22:59:55.176Z,2.70
2022-10-19T23:02:22.055Z,2.58
2022-10-19T23:04:48.814Z,2.70
2022-10-19T23:07:15.770Z,2.77
2022-10-19T23:09:42.671Z,2.60
2022-10-19T23:12:09.449Z,2.72
2022-10-19T23:14:36.331Z,2.50
2022-10-19T23:17:03.231Z,2.67
2022-10-19T23:19:30.133Z,2.33
2022-10-19T23:21:57.082Z,3.30
2022-10-19T23:24:24.068Z,2.70
2022-10-19T23:26:50.901Z,2.70
2022-10-19T23:29:17.639Z,2.65
2022-10-19T23:31:44.514Z,2.90
2022-10-19T23:34:11.396Z,2.80
2022-10-19T23:36:38.182Z,2.70
2022-10-19T23:39:04.945Z,3.55
2022-10-19T23:41:31.829Z,2.88
2022-10-19T23:43:58.731Z,3.07
2022-10-19T23:46:25.671Z,2.58
2022-10-19T23:48:52.533Z,3.08
2022-10-19T23:51:21.316Z,2.80
2022-10-19T23:53:50.079Z,3.17
2022-10-19T23:56:25.433Z,2.90
2022-10-19T23:58:53.015Z,2.60
